sensor_id;sensor_type;location;lat;lon;timestamp;P1;durP1;ratioP1;P2;durP2;ratioP2
71759;SDS011;59919;48.112;16.280;2022-09-20T00:01:28;0.65;;;0.40;;
71759;SDS011;59919;48.112;16.280;2022-09-20T00:06:37;0.82;;;0.43;;
71759;SDS011;59919;48.112;16.280;2022-09-20T00:09:08;1.05;;;0.40;;
71759;SDS011;59919;48.112;16.280;2022-09-20T00:11:44;0.68;;;0.40;;
71759;SDS011;59919;48.112;16.280;2022-09-20T00:14:15;0.75;;;0.40;;
71759;SDS011;59919;48.112;16.280;2022-09-20T00:16:46;1.15;;;0.50;;
71759;SDS011;59919;48.112;16.280;2022-09-20T00:19:18;0.55;;;0.40;;
71759;SDS011;59919;48.112;16.280;2022-09-20T00:21:55;0.60;;;0.47;;
71759;SDS011;59919;48.112;16.280;2022-09-20T00:24:26;1.02;;;0.40;;
71759;SDS011;59919;48.112;16.280;2022-09-20T00:26:57;0.47;;;0.30;;
71759;SDS011;59919;48.112;16.280;2022-09-20T00:29:30;0.57;;;0.35;;
71759;SDS011;59919;48.112;16.280;2022-09-20T00:32:07;2.17;;;0.50;;
71759;SDS011;59919;48.112;16.280;2022-09-20T00:34:38;1.73;;;0.63;;
71759;SDS011;59919;48.112;16.280;2022-09-20T00:37:27;1.40;;;0.32;;
71759;SDS011;59919;48.112;16.280;2022-09-20T00:39:58;0.57;;;0.35;;
71759;SDS011;59919;48.112;16.280;2022-09-20T00:42:30;0.77;;;0.38;;
71759;SDS011;59919;48.112;16.280;2022-09-20T00:45:03;0.22;;;0.22;;
71759;SDS011;59919;48.112;16.280;2022-09-20T00:47:41;0.57;;;0.40;;
71759;SDS011;59919;48.112;16.280;2022-09-20T00:50:26;0.57;;;0.40;;
71759;SDS011;59919;48.112;16.280;2022-09-20T00:53:17;0.43;;;0.32;;
71759;SDS011;59919;48.112;16.280;2022-09-20T00:55:55;0.40;;;0.30;;
71759;SDS011;59919;48.112;16.280;2022-09-20T00:58:29;0.77;;;0.40;;
71759;SDS011;59919;48.112;16.280;2022-09-20T01:01:04;1.63;;;0.40;;
71759;SDS011;59919;48.112;16.280;2022-09-20T01:03:39;0.52;;;0.32;;
71759;SDS011;59919;48.112;16.280;2022-09-20T01:06:13;0.93;;;0.40;;
71759;SDS011;59919;48.112;16.280;2022-09-20T01:08:47;0.57;;;0.35;;
71759;SDS011;59919;48.112;16.280;2022-09-20T01:11:21;0.80;;;0.40;;
71759;SDS011;59919;48.112;16.280;2022-09-20T01:13:52;0.98;;;0.50;;
71759;SDS011;59919;48.112;16.280;2022-09-20T01:16:29;0.60;;;0.38;;
71759;SDS011;59919;48.112;16.280;2022-09-20T01:19:03;0.40;;;0.30;;
71759;SDS011;59919;48.112;16.280;2022-09-20T01:21:42;1.00;;;0.35;;
71759;SDS011;59919;48.112;16.280;2022-09-20T01:24:20;0.77;;;0.30;;
71759;SDS011;59919;48.112;16.280;2022-09-20T01:27:00;0.63;;;0.30;;
71759;SDS011;59919;48.112;16.280;2022-09-20T01:32:56;0.60;;;0.40;;
71759;SDS011;59919;48.112;16.280;2022-09-20T01:35:26;0.60;;;0.32;;
71759;SDS011;59919;48.112;16.280;2022-09-20T01:43:47;0.68;;;0.40;;
71759;SDS011;59919;48.112;16.280;2022-09-20T01:46:29;0.40;;;0.38;;
71759;SDS011;59919;48.112;16.280;2022-09-20T01:49:06;0.40;;;0.40;;
71759;SDS011;59919;48.112;16.280;2022-09-20T02:00:56;0.40;;;0.40;;
71759;SDS011;59919;48.112;16.280;2022-09-20T02:09:34;2.45;;;0.30;;
71759;SDS011;59919;48.112;16.280;2022-09-20T02:23:20;0.30;;;0.30;;
71759;SDS011;59919;48.112;16.280;2022-09-20T02:51:56;0.50;;;0.30;;
71759;SDS011;59919;48.112;16.280;2022-09-20T02:57:49;1.07;;;0.37;;
71759;SDS011;59919;48.112;16.280;2022-09-20T03:00:51;0.50;;;0.40;;
71759;SDS011;59919;48.112;16.280;2022-09-20T03:15:22;0.40;;;0.30;;
71759;SDS011;59919;48.112;16.280;2022-09-20T03:18:11;0.75;;;0.40;;
71759;SDS011;59919;48.112;16.280;2022-09-20T03:29:24;0.30;;;0.30;;
71759;SDS011;59919;48.112;16.280;2022-09-20T03:35:33;0.38;;;0.30;;
71759;SDS011;59919;48.112;16.280;2022-09-20T03:38:42;0.28;;;0.28;;
71759;SDS011;59919;48.112;16.280;2022-09-20T03:41:36;0.47;;;0.45;;
71759;SDS011;59919;48.112;16.280;2022-09-20T03:44:14;0.50;;;0.30;;
71759;SDS011;59919;48.112;16.280;2022-09-20T03:46:56;0.40;;;0.40;;
71759;SDS011;59919;48.112;16.280;2022-09-20T03:52:37;0.57;;;0.38;;
71759;SDS011;59919;48.112;16.280;2022-09-20T03:55:36;0.70;;;0.30;;
71759;SDS011;59919;48.112;16.280;2022-09-20T03:58:33;0.28;;;0.25;;
71759;SDS011;59919;48.112;16.280;2022-09-20T04:04:39;0.40;;;0.40;;
71759;SDS011;59919;48.112;16.280;2022-09-20T04:10:26;0.50;;;0.38;;
71759;SDS011;59919;48.112;16.280;2022-09-20T04:13:14;0.75;;;0.30;;
71759;SDS011;59919;48.112;16.280;2022-09-20T04:21:30;0.68;;;0.47;;
71759;SDS011;59919;48.112;16.280;2022-09-20T04:24:21;0.32;;;0.30;;
71759;SDS011;59919;48.112;16.280;2022-09-20T04:26:59;0.30;;;0.30;;
71759;SDS011;59919;48.112;16.280;2022-09-20T04:38:33;1.05;;;0.43;;
71759;SDS011;59919;48.112;16.280;2022-09-20T05:17:50;0.50;;;0.40;;
71759;SDS011;59919;48.112;16.280;2022-09-20T05:20:47;0.30;;;0.30;;
71759;SDS011;59919;48.112;16.280;2022-09-20T05:35:14;0.80;;;0.32;;
71759;SDS011;59919;48.112;16.280;2022-09-20T05:43:49;0.77;;;0.40;;
71759;SDS011;59919;48.112;16.280;2022-09-20T05:49:18;0.30;;;0.30;;
71759;SDS011;59919;48.112;16.280;2022-09-20T06:00:40;0.40;;;0.30;;
71759;SDS011;59919;48.112;16.280;2022-09-20T06:03:29;0.65;;;0.40;;
71759;SDS011;59919;48.112;16.280;2022-09-20T06:06:21;0.43;;;0.20;;
71759;SDS011;59919;48.112;16.280;2022-09-20T06:17:55;0.40;;;0.30;;
71759;SDS011;59919;48.112;16.280;2022-09-20T06:20:35;0.40;;;0.40;;
71759;SDS011;59919;48.112;16.280;2022-09-20T06:23:11;0.35;;;0.30;;
71759;SDS011;59919;48.112;16.280;2022-09-20T06:25:50;0.82;;;0.30;;
71759;SDS011;59919;48.112;16.280;2022-09-20T06:28:28;1.90;;;0.32;;
71759;SDS011;59919;48.112;16.280;2022-09-20T06:37:38;0.50;;;0.32;;
71759;SDS011;59919;48.112;16.280;2022-09-20T06:40:36;3.15;;;0.50;;
71759;SDS011;59919;48.112;16.280;2022-09-20T06:43:28;0.73;;;0.40;;
71759;SDS011;59919;48.112;16.280;2022-09-20T06:46:00;1.08;;;0.55;;
71759;SDS011;59919;48.112;16.280;2022-09-20T06:48:40;0.52;;;0.35;;
71759;SDS011;59919;48.112;16.280;2022-09-20T06:51:18;0.98;;;0.40;;
71759;SDS011;59919;48.112;16.280;2022-09-20T06:53:50;0.55;;;0.40;;
71759;SDS011;59919;48.112;16.280;2022-09-20T06:56:22;0.75;;;0.35;;
71759;SDS011;59919;48.112;16.280;2022-09-20T06:58:56;0.38;;;0.30;;
71759;SDS011;59919;48.112;16.280;2022-09-20T07:01:27;2.83;;;0.43;;
71759;SDS011;59919;48.112;16.280;2022-09-20T07:03:58;0.40;;;0.40;;
71759;SDS011;59919;48.112;16.280;2022-09-20T07:06:35;1.02;;;0.50;;
71759;SDS011;59919;48.112;16.280;2022-09-20T07:09:08;0.47;;;0.30;;
71759;SDS011;59919;48.112;16.280;2022-09-20T07:11:41;2.63;;;0.40;;
71759;SDS011;59919;48.112;16.280;2022-09-20T07:14:14;0.43;;;0.40;;
71759;SDS011;59919;48.112;16.280;2022-09-20T07:16:45;0.57;;;0.50;;
71759;SDS011;59919;48.112;16.280;2022-09-20T07:19:19;0.50;;;0.50;;
71759;SDS011;59919;48.112;16.280;2022-09-20T07:21:52;0.40;;;0.40;;
71759;SDS011;59919;48.112;16.280;2022-09-20T07:24:23;0.80;;;0.30;;
71759;SDS011;59919;48.112;16.280;2022-09-20T07:26:55;0.90;;;0.40;;
71759;SDS011;59919;48.112;16.280;2022-09-20T07:29:28;1.08;;;0.50;;
71759;SDS011;59919;48.112;16.280;2022-09-20T07:31:59;0.68;;;0.38;;
71759;SDS011;59919;48.112;16.280;2022-09-20T07:34:30;0.43;;;0.28;;
71759;SDS011;59919;48.112;16.280;2022-09-20T07:37:01;0.57;;;0.32;;
71759;SDS011;59919;48.112;16.280;2022-09-20T07:39:32;0.30;;;0.30;;
71759;SDS011;59919;48.112;16.280;2022-09-20T07:42:03;0.45;;;0.40;;
71759;SDS011;59919;48.112;16.280;2022-09-20T07:44:42;0.40;;;0.40;;
71759;SDS011;59919;48.112;16.280;2022-09-20T07:47:13;0.80;;;0.35;;
71759;SDS011;59919;48.112;16.280;2022-09-20T07:49:44;0.30;;;0.30;;
71759;SDS011;59919;48.112;16.280;2022-09-20T07:52:15;0.70;;;0.40;;
71759;SDS011;59919;48.112;16.280;2022-09-20T07:54:47;0.73;;;0.30;;
71759;SDS011;59919;48.112;16.280;2022-09-20T07:57:21;0.68;;;0.30;;
71759;SDS011;59919;48.112;16.280;2022-09-20T07:59:55;0.28;;;0.25;;
71759;SDS011;59919;48.112;16.280;2022-09-20T08:02:28;1.02;;;0.40;;
71759;SDS011;59919;48.112;16.280;2022-09-20T08:04:59;1.38;;;0.45;;
71759;SDS011;59919;48.112;16.280;2022-09-20T08:07:30;2.15;;;0.40;;
71759;SDS011;59919;48.112;16.280;2022-09-20T08:10:05;0.50;;;0.40;;
71759;SDS011;59919;48.112;16.280;2022-09-20T08:12:36;0.43;;;0.38;;
71759;SDS011;59919;48.112;16.280;2022-09-20T08:15:07;0.38;;;0.32;;
71759;SDS011;59919;48.112;16.280;2022-09-20T08:17:47;1.45;;;0.50;;
71759;SDS011;59919;48.112;16.280;2022-09-20T08:20:21;0.63;;;0.50;;
71759;SDS011;59919;48.112;16.280;2022-09-20T08:22:51;0.80;;;0.40;;
71759;SDS011;59919;48.112;16.280;2022-09-20T08:25:27;1.30;;;0.50;;
71759;SDS011;59919;48.112;16.280;2022-09-20T08:28:01;1.27;;;0.38;;
71759;SDS011;59919;48.112;16.280;2022-09-20T08:30:32;0.60;;;0.30;;
71759;SDS011;59919;48.112;16.280;2022-09-20T08:33:03;1.30;;;0.40;;
71759;SDS011;59919;48.112;16.280;2022-09-20T08:35:34;0.43;;;0.40;;
71759;SDS011;59919;48.112;16.280;2022-09-20T08:38:08;0.50;;;0.30;;
71759;SDS011;59919;48.112;16.280;2022-09-20T08:40:41;1.23;;;0.50;;
71759;SDS011;59919;48.112;16.280;2022-09-20T08:43:13;0.95;;;0.45;;
71759;SDS011;59919;48.112;16.280;2022-09-20T08:45:45;1.48;;;0.52;;
71759;SDS011;59919;48.112;16.280;2022-09-20T08:48:16;2.90;;;0.50;;
71759;SDS011;59919;48.112;16.280;2022-09-20T08:50:48;1.05;;;0.50;;
71759;SDS011;59919;48.112;16.280;2022-09-20T08:53:19;0.73;;;0.50;;
71759;SDS011;59919;48.112;16.280;2022-09-20T08:55:54;0.30;;;0.30;;
71759;SDS011;59919;48.112;16.280;2022-09-20T08:58:29;0.65;;;0.40;;
71759;SDS011;59919;48.112;16.280;2022-09-20T09:01:02;1.30;;;0.40;;
71759;SDS011;59919;48.112;16.280;2022-09-20T09:03:36;0.40;;;0.38;;
71759;SDS011;59919;48.112;16.280;2022-09-20T09:06:10;0.40;;;0.40;;
71759;SDS011;59919;48.112;16.280;2022-09-20T09:08:43;0.70;;;0.55;;
71759;SDS011;59919;48.112;16.280;2022-09-20T09:11:23;1.42;;;0.43;;
71759;SDS011;59919;48.112;16.280;2022-09-20T09:14:04;1.70;;;0.47;;
71759;SDS011;59919;48.112;16.280;2022-09-20T09:17:01;0.60;;;0.50;;
71759;SDS011;59919;48.112;16.280;2022-09-20T09:19:43;1.95;;;0.52;;
71759;SDS011;59919;48.112;16.280;2022-09-20T09:22:29;1.75;;;0.70;;
71759;SDS011;59919;48.112;16.280;2022-09-20T09:25:30;2.00;;;0.55;;
71759;SDS011;59919;48.112;16.280;2022-09-20T09:30:39;0.88;;;0.50;;
71759;SDS011;59919;48.112;16.280;2022-09-20T09:35:59;2.90;;;0.60;;
71759;SDS011;59919;48.112;16.280;2022-09-20T09:38:37;1.58;;;0.68;;
71759;SDS011;59919;48.112;16.280;2022-09-20T09:46:31;1.95;;;1.00;;
71759;SDS011;59919;48.112;16.280;2022-09-20T09:54:27;2.40;;;0.88;;
71759;SDS011;59919;48.112;16.280;2022-09-20T10:05:08;4.13;;;1.00;;
71759;SDS011;59919;48.112;16.280;2022-09-20T10:07:46;0.70;;;0.68;;
71759;SDS011;59919;48.112;16.280;2022-09-20T10:10:38;3.25;;;0.82;;
71759;SDS011;59919;48.112;16.280;2022-09-20T10:16:34;2.70;;;1.02;;
71759;SDS011;59919;48.112;16.280;2022-09-20T10:22:18;2.85;;;1.05;;
71759;SDS011;59919;48.112;16.280;2022-09-20T10:47:09;2.42;;;0.90;;
71759;SDS011;59919;48.112;16.280;2022-09-20T10:49:54;1.63;;;0.88;;
71759;SDS011;59919;48.112;16.280;2022-09-20T10:58:47;2.92;;;1.00;;
71759;SDS011;59919;48.112;16.280;2022-09-20T11:01:31;3.97;;;0.80;;
71759;SDS011;59919;48.112;16.280;2022-09-20T11:10:28;1.33;;;1.05;;
71759;SDS011;59919;48.112;16.280;2022-09-20T11:13:20;1.45;;;0.80;;
71759;SDS011;59919;48.112;16.280;2022-09-20T11:21:37;3.28;;;0.90;;
71759;SDS011;59919;48.112;16.280;2022-09-20T11:28:06;2.42;;;1.10;;
71759;SDS011;59919;48.112;16.280;2022-09-20T11:30:16;2.28;;;0.73;;
71759;SDS011;59919;48.112;16.280;2022-09-20T11:35:28;1.52;;;0.98;;
71759;SDS011;59919;48.112;16.280;2022-09-20T11:43:48;1.67;;;0.82;;
71759;SDS011;59919;48.112;16.280;2022-09-20T11:46:27;1.50;;;0.82;;
71759;SDS011;59919;48.112;16.280;2022-09-20T11:49:12;1.60;;;0.93;;
71759;SDS011;59919;48.112;16.280;2022-09-20T11:55:16;2.97;;;1.10;;
71759;SDS011;59919;48.112;16.280;2022-09-20T11:58:06;4.25;;;1.05;;
71759;SDS011;59919;48.112;16.280;2022-09-20T12:00:42;2.45;;;0.90;;
71759;SDS011;59919;48.112;16.280;2022-09-20T12:08:56;3.03;;;1.02;;
71759;SDS011;59919;48.112;16.280;2022-09-20T12:11:31;1.27;;;0.70;;
71759;SDS011;59919;48.112;16.280;2022-09-20T12:14:06;2.67;;;1.10;;
71759;SDS011;59919;48.112;16.280;2022-09-20T12:16:56;2.97;;;0.95;;
71759;SDS011;59919;48.112;16.280;2022-09-20T12:24:34;2.10;;;0.98;;
71759;SDS011;59919;48.112;16.280;2022-09-20T12:30:17;4.10;;;1.45;;
71759;SDS011;59919;48.112;16.280;2022-09-20T12:32:59;1.70;;;0.77;;
71759;SDS011;59919;48.112;16.280;2022-09-20T12:43:28;4.85;;;0.80;;
71759;SDS011;59919;48.112;16.280;2022-09-20T12:46:01;5.97;;;1.30;;
71759;SDS011;59919;48.112;16.280;2022-09-20T12:48:34;3.45;;;1.00;;
71759;SDS011;59919;48.112;16.280;2022-09-20T12:54:04;5.75;;;1.17;;
71759;SDS011;59919;48.112;16.280;2022-09-20T12:56:38;4.05;;;0.90;;
71759;SDS011;59919;48.112;16.280;2022-09-20T12:59:21;2.70;;;0.68;;
71759;SDS011;59919;48.112;16.280;2022-09-20T13:02:39;4.55;;;1.30;;
71759;SDS011;59919;48.112;16.280;2022-09-20T13:05:29;3.15;;;0.80;;
71759;SDS011;59919;48.112;16.280;2022-09-20T13:08:15;1.67;;;0.95;;
71759;SDS011;59919;48.112;16.280;2022-09-20T13:10:56;3.45;;;1.08;;
71759;SDS011;59919;48.112;16.280;2022-09-20T13:17:13;1.73;;;0.80;;
71759;SDS011;59919;48.112;16.280;2022-09-20T13:19:43;1.63;;;0.80;;
71759;SDS011;59919;48.112;16.280;2022-09-20T13:22:19;1.88;;;0.93;;
71759;SDS011;59919;48.112;16.280;2022-09-20T13:24:56;1.90;;;0.90;;
71759;SDS011;59919;48.112;16.280;2022-09-20T13:27:33;2.35;;;0.70;;
71759;SDS011;59919;48.112;16.280;2022-09-20T13:32:48;1.73;;;0.70;;
71759;SDS011;59919;48.112;16.280;2022-09-20T13:35:21;3.55;;;0.80;;
71759;SDS011;59919;48.112;16.280;2022-09-20T13:38:01;1.30;;;0.80;;
71759;SDS011;59919;48.112;16.280;2022-09-20T13:40:44;3.15;;;0.68;;
71759;SDS011;59919;48.112;16.280;2022-09-20T13:46:07;2.50;;;0.95;;
71759;SDS011;59919;48.112;16.280;2022-09-20T13:51:50;2.78;;;0.90;;
71759;SDS011;59919;48.112;16.280;2022-09-20T13:54:31;2.90;;;0.60;;
71759;SDS011;59919;48.112;16.280;2022-09-20T13:57:09;2.65;;;0.73;;
71759;SDS011;59919;48.112;16.280;2022-09-20T13:59:50;3.72;;;0.70;;
71759;SDS011;59919;48.112;16.280;2022-09-20T14:04:59;2.20;;;0.90;;
71759;SDS011;59919;48.112;16.280;2022-09-20T14:07:36;2.78;;;0.77;;
71759;SDS011;59919;48.112;16.280;2022-09-20T14:13:02;3.95;;;1.00;;
71759;SDS011;59919;48.112;16.280;2022-09-20T14:15:37;2.15;;;0.80;;
71759;SDS011;59919;48.112;16.280;2022-09-20T14:18:15;1.83;;;0.60;;
71759;SDS011;59919;48.112;16.280;2022-09-20T14:20:50;2.95;;;0.73;;
71759;SDS011;59919;48.112;16.280;2022-09-20T14:23:28;1.05;;;0.50;;
71759;SDS011;59919;48.112;16.280;2022-09-20T14:28:58;2.75;;;0.70;;
71759;SDS011;59919;48.112;16.280;2022-09-20T14:32:00;0.93;;;0.75;;
71759;SDS011;59919;48.112;16.280;2022-09-20T14:35:02;1.02;;;0.70;;
71759;SDS011;59919;48.112;16.280;2022-09-20T14:37:56;1.15;;;0.80;;
71759;SDS011;59919;48.112;16.280;2022-09-20T14:40:39;2.95;;;0.70;;
71759;SDS011;59919;48.112;16.280;2022-09-20T14:43:20;3.40;;;0.90;;
71759;SDS011;59919;48.112;16.280;2022-09-20T14:46:48;2.38;;;0.65;;
71759;SDS011;59919;48.112;16.280;2022-09-20T14:55:02;1.05;;;0.50;;
71759;SDS011;59919;48.112;16.280;2022-09-20T14:57:46;5.10;;;1.17;;
71759;SDS011;59919;48.112;16.280;2022-09-20T15:00:20;2.08;;;0.80;;
71759;SDS011;59919;48.112;16.280;2022-09-20T15:02:52;1.15;;;0.60;;
71759;SDS011;59919;48.112;16.280;2022-09-20T15:05:24;2.22;;;0.70;;
71759;SDS011;59919;48.112;16.280;2022-09-20T15:07:56;0.77;;;0.75;;
71759;SDS011;59919;48.112;16.280;2022-09-20T15:10:28;2.10;;;0.75;;
71759;SDS011;59919;48.112;16.280;2022-09-20T15:13:02;2.22;;;0.52;;
71759;SDS011;59919;48.112;16.280;2022-09-20T15:15:33;3.22;;;1.00;;
71759;SDS011;59919;48.112;16.280;2022-09-20T15:18:05;2.10;;;0.80;;
71759;SDS011;59919;48.112;16.280;2022-09-20T15:20:49;1.13;;;0.60;;
71759;SDS011;59919;48.112;16.280;2022-09-20T15:23:20;2.97;;;0.70;;
71759;SDS011;59919;48.112;16.280;2022-09-20T15:25:54;1.35;;;0.60;;
71759;SDS011;59919;48.112;16.280;2022-09-20T15:28:32;1.90;;;0.43;;
71759;SDS011;59919;48.112;16.280;2022-09-20T15:31:04;1.75;;;0.63;;
71759;SDS011;59919;48.112;16.280;2022-09-20T15:33:36;1.42;;;0.50;;
71759;SDS011;59919;48.112;16.280;2022-09-20T15:36:09;2.30;;;0.70;;
71759;SDS011;59919;48.112;16.280;2022-09-20T15:38:40;2.30;;;0.70;;
71759;SDS011;59919;48.112;16.280;2022-09-20T15:41:11;1.65;;;0.85;;
71759;SDS011;59919;48.112;16.280;2022-09-20T15:43:45;1.92;;;0.75;;
71759;SDS011;59919;48.112;16.280;2022-09-20T15:46:22;3.22;;;0.70;;
71759;SDS011;59919;48.112;16.280;2022-09-20T15:48:58;2.40;;;0.70;;
71759;SDS011;59919;48.112;16.280;2022-09-20T15:51:30;0.90;;;0.50;;
71759;SDS011;59919;48.112;16.280;2022-09-20T15:54:02;1.30;;;0.65;;
71759;SDS011;59919;48.112;16.280;2022-09-20T15:56:35;1.10;;;0.68;;
71759;SDS011;59919;48.112;16.280;2022-09-20T15:59:10;1.73;;;0.70;;
71759;SDS011;59919;48.112;16.280;2022-09-20T16:01:45;1.33;;;0.68;;
71759;SDS011;59919;48.112;16.280;2022-09-20T16:04:18;1.10;;;0.60;;
71759;SDS011;59919;48.112;16.280;2022-09-20T16:06:49;1.48;;;0.50;;
71759;SDS011;59919;48.112;16.280;2022-09-20T16:09:20;1.40;;;0.65;;
71759;SDS011;59919;48.112;16.280;2022-09-20T16:11:51;1.00;;;0.70;;
71759;SDS011;59919;48.112;16.280;2022-09-20T16:14:28;1.38;;;0.70;;
71759;SDS011;59919;48.112;16.280;2022-09-20T16:17:01;0.85;;;0.70;;
71759;SDS011;59919;48.112;16.280;2022-09-20T16:19:32;1.75;;;0.60;;
71759;SDS011;59919;48.112;16.280;2022-09-20T16:22:03;2.78;;;0.70;;
71759;SDS011;59919;48.112;16.280;2022-09-20T16:24:34;1.42;;;0.50;;
71759;SDS011;59919;48.112;16.280;2022-09-20T16:27:06;0.77;;;0.70;;
71759;SDS011;59919;48.112;16.280;2022-09-20T16:29:44;2.40;;;0.68;;
71759;SDS011;59919;48.112;16.280;2022-09-20T16:32:17;1.98;;;0.60;;
71759;SDS011;59919;48.112;16.280;2022-09-20T16:34:48;0.80;;;0.50;;
71759;SDS011;59919;48.112;16.280;2022-09-20T16:37:20;2.28;;;0.65;;
71759;SDS011;59919;48.112;16.280;2022-09-20T16:39:52;0.60;;;0.40;;
71759;SDS011;59919;48.112;16.280;2022-09-20T16:42:24;1.42;;;0.70;;
71759;SDS011;59919;48.112;16.280;2022-09-20T16:44:55;1.13;;;0.60;;
71759;SDS011;59919;48.112;16.280;2022-09-20T16:47:26;1.23;;;0.60;;
71759;SDS011;59919;48.112;16.280;2022-09-20T16:49:57;1.17;;;0.50;;
71759;SDS011;59919;48.112;16.280;2022-09-20T16:52:28;2.13;;;0.60;;
71759;SDS011;59919;48.112;16.280;2022-09-20T16:55:00;1.42;;;0.60;;
71759;SDS011;59919;48.112;16.280;2022-09-20T16:57:34;2.72;;;0.60;;
71759;SDS011;59919;48.112;16.280;2022-09-20T17:00:10;1.97;;;0.77;;
71759;SDS011;59919;48.112;16.280;2022-09-20T17:02:42;0.73;;;0.70;;
71759;SDS011;59919;48.112;16.280;2022-09-20T17:05:16;1.30;;;0.50;;
71759;SDS011;59919;48.112;16.280;2022-09-20T17:07:47;1.17;;;0.50;;
71759;SDS011;59919;48.112;16.280;2022-09-20T17:10:23;1.47;;;0.83;;
71759;SDS011;59919;48.112;16.280;2022-09-20T17:12:58;1.23;;;0.50;;
71759;SDS011;59919;48.112;16.280;2022-09-20T17:15:29;0.50;;;0.40;;
71759;SDS011;59919;48.112;16.280;2022-09-20T17:18:03;2.35;;;0.60;;
71759;SDS011;59919;48.112;16.280;2022-09-20T17:20:35;0.70;;;0.40;;
71759;SDS011;59919;48.112;16.280;2022-09-20T17:23:10;1.52;;;0.63;;
71759;SDS011;59919;48.112;16.280;2022-09-20T17:25:44;0.77;;;0.47;;
71759;SDS011;59919;48.112;16.280;2022-09-20T17:28:18;0.90;;;0.55;;
71759;SDS011;59919;48.112;16.280;2022-09-20T17:30:49;1.20;;;0.70;;
71759;SDS011;59919;48.112;16.280;2022-09-20T17:33:22;1.60;;;0.65;;
71759;SDS011;59919;48.112;16.280;2022-09-20T17:35:57;1.08;;;0.70;;
71759;SDS011;59919;48.112;16.280;2022-09-20T17:38:32;2.53;;;0.70;;
71759;SDS011;59919;48.112;16.280;2022-09-20T17:41:12;2.08;;;0.60;;
71759;SDS011;59919;48.112;16.280;2022-09-20T17:43:49;1.80;;;0.60;;
71759;SDS011;59919;48.112;16.280;2022-09-20T17:46:24;1.13;;;0.50;;
71759;SDS011;59919;48.112;16.280;2022-09-20T17:49:02;1.60;;;0.60;;
71759;SDS011;59919;48.112;16.280;2022-09-20T17:51:36;1.00;;;0.50;;
71759;SDS011;59919;48.112;16.280;2022-09-20T17:54:12;1.35;;;0.55;;
71759;SDS011;59919;48.112;16.280;2022-09-20T17:56:44;1.98;;;0.68;;
71759;SDS011;59919;48.112;16.280;2022-09-20T17:59:17;0.80;;;0.50;;
71759;SDS011;59919;48.112;16.280;2022-09-20T18:01:57;1.33;;;0.60;;
71759;SDS011;59919;48.112;16.280;2022-09-20T18:04:28;0.77;;;0.60;;
71759;SDS011;59919;48.112;16.280;2022-09-20T18:06:59;0.93;;;0.40;;
71759;SDS011;59919;48.112;16.280;2022-09-20T18:09:33;1.13;;;0.60;;
71759;SDS011;59919;48.112;16.280;2022-09-20T18:12:04;1.58;;;0.60;;
71759;SDS011;59919;48.112;16.280;2022-09-20T18:14:39;0.68;;;0.50;;
71759;SDS011;59919;48.112;16.280;2022-09-20T18:17:11;1.08;;;0.50;;
71759;SDS011;59919;48.112;16.280;2022-09-20T18:19:44;1.27;;;0.70;;
71759;SDS011;59919;48.112;16.280;2022-09-20T18:22:18;0.60;;;0.38;;
71759;SDS011;59919;48.112;16.280;2022-09-20T18:24:49;0.85;;;0.60;;
71759;SDS011;59919;48.112;16.280;2022-09-20T18:27:21;2.10;;;0.70;;
71759;SDS011;59919;48.112;16.280;2022-09-20T18:29:54;1.67;;;0.55;;
71759;SDS011;59919;48.112;16.280;2022-09-20T18:32:26;1.13;;;0.68;;
71759;SDS011;59919;48.112;16.280;2022-09-20T18:34:59;1.05;;;0.68;;
71759;SDS011;59919;48.112;16.280;2022-09-20T18:37:30;1.05;;;0.38;;
71759;SDS011;59919;48.112;16.280;2022-09-20T18:40:03;1.55;;;0.60;;
71759;SDS011;59919;48.112;16.280;2022-09-20T18:42:37;1.27;;;0.52;;
71759;SDS011;59919;48.112;16.280;2022-09-20T18:45:11;0.40;;;0.40;;
71759;SDS011;59919;48.112;16.280;2022-09-20T18:47:42;3.22;;;0.60;;
71759;SDS011;59919;48.112;16.280;2022-09-20T18:50:16;2.42;;;0.65;;
71759;SDS011;59919;48.112;16.280;2022-09-20T18:52:48;0.73;;;0.50;;
71759;SDS011;59919;48.112;16.280;2022-09-20T18:55:24;1.05;;;0.50;;
71759;SDS011;59919;48.112;16.280;2022-09-20T18:57:55;0.90;;;0.50;;
71759;SDS011;59919;48.112;16.280;2022-09-20T19:00:26;0.73;;;0.45;;
71759;SDS011;59919;48.112;16.280;2022-09-20T19:03:05;1.45;;;0.50;;
71759;SDS011;59919;48.112;16.280;2022-09-20T19:05:53;1.08;;;0.60;;
71759;SDS011;59919;48.112;16.280;2022-09-20T19:08:48;0.98;;;0.57;;
71759;SDS011;59919;48.112;16.280;2022-09-20T19:11:33;1.02;;;0.60;;
71759;SDS011;59919;48.112;16.280;2022-09-20T19:14:12;1.50;;;0.68;;
71759;SDS011;59919;48.112;16.280;2022-09-20T19:16:59;1.38;;;0.60;;
71759;SDS011;59919;48.112;16.280;2022-09-20T19:22:17;9.65;;;0.50;;
71759;SDS011;59919;48.112;16.280;2022-09-20T19:27:39;1.88;;;0.75;;
71759;SDS011;59919;48.112;16.280;2022-09-20T19:30:13;0.73;;;0.50;;
71759;SDS011;59919;48.112;16.280;2022-09-20T19:32:45;1.33;;;0.40;;
71759;SDS011;59919;48.112;16.280;2022-09-20T19:35:18;1.10;;;0.40;;
71759;SDS011;59919;48.112;16.280;2022-09-20T19:38:00;1.08;;;0.50;;
71759;SDS011;59919;48.112;16.280;2022-09-20T19:41:02;0.80;;;0.50;;
71759;SDS011;59919;48.112;16.280;2022-09-20T19:49:55;1.70;;;0.45;;
71759;SDS011;59919;48.112;16.280;2022-09-20T19:52:33;0.98;;;0.40;;
71759;SDS011;59919;48.112;16.280;2022-09-20T19:55:04;0.90;;;0.45;;
71759;SDS011;59919;48.112;16.280;2022-09-20T19:57:39;0.73;;;0.40;;
71759;SDS011;59919;48.112;16.280;2022-09-20T20:00:14;1.05;;;0.52;;
71759;SDS011;59919;48.112;16.280;2022-09-20T20:02:47;0.93;;;0.40;;
71759;SDS011;59919;48.112;16.280;2022-09-20T20:05:19;0.63;;;0.50;;
71759;SDS011;59919;48.112;16.280;2022-09-20T20:08:13;1.13;;;0.60;;
71759;SDS011;59919;48.112;16.280;2022-09-20T20:13:40;1.08;;;0.43;;
71759;SDS011;59919;48.112;16.280;2022-09-20T20:22:04;0.30;;;0.30;;
71759;SDS011;59919;48.112;16.280;2022-09-20T20:25:00;0.90;;;0.52;;
71759;SDS011;59919;48.112;16.280;2022-09-20T20:27:31;0.50;;;0.50;;
71759;SDS011;59919;48.112;16.280;2022-09-20T20:30:05;0.60;;;0.47;;
71759;SDS011;59919;48.112;16.280;2022-09-20T20:32:36;1.25;;;0.40;;
71759;SDS011;59919;48.112;16.280;2022-09-20T20:35:07;0.80;;;0.55;;
71759;SDS011;59919;48.112;16.280;2022-09-20T20:40:16;0.85;;;0.52;;
71759;SDS011;59919;48.112;16.280;2022-09-20T20:42:48;1.38;;;0.50;;
71759;SDS011;59919;48.112;16.280;2022-09-20T20:45:24;0.77;;;0.60;;
71759;SDS011;59919;48.112;16.280;2022-09-20T20:47:56;0.47;;;0.40;;
71759;SDS011;59919;48.112;16.280;2022-09-20T20:50:34;0.65;;;0.50;;
71759;SDS011;59919;48.112;16.280;2022-09-20T20:53:08;0.65;;;0.43;;
71759;SDS011;59919;48.112;16.280;2022-09-20T20:55:39;1.13;;;0.57;;
71759;SDS011;59919;48.112;16.280;2022-09-20T20:58:10;0.90;;;0.50;;
71759;SDS011;59919;48.112;16.280;2022-09-20T21:00:50;0.98;;;0.40;;
71759;SDS011;59919;48.112;16.280;2022-09-20T21:03:21;0.90;;;0.45;;
71759;SDS011;59919;48.112;16.280;2022-09-20T21:05:52;0.88;;;0.60;;
71759;SDS011;59919;48.112;16.280;2022-09-20T21:08:29;1.73;;;0.57;;
71759;SDS011;59919;48.112;16.280;2022-09-20T21:11:02;0.75;;;0.40;;
71759;SDS011;59919;48.112;16.280;2022-09-20T21:13:38;0.65;;;0.40;;
71759;SDS011;59919;48.112;16.280;2022-09-20T21:16:10;0.98;;;0.50;;
71759;SDS011;59919;48.112;16.280;2022-09-20T21:18:44;0.50;;;0.32;;
71759;SDS011;59919;48.112;16.280;2022-09-20T21:23:52;0.70;;;0.40;;
71759;SDS011;59919;48.112;16.280;2022-09-20T21:26:25;0.93;;;0.50;;
71759;SDS011;59919;48.112;16.280;2022-09-20T21:28:58;0.45;;;0.45;;